Time;durP1;ratioP1;P1;durP2;ratioP2;P2;SDS_P1;SDS_P2;PMS_P1;PMS_P2;Temp;Humidity;BMP_temperature;BMP_pressure;BME280_temperature;BME280_humidity;BME280_pressure;Samples;Min_cycle;Max_cycle;Signal;HPM_P1;HPM_P2
2023/04/16 00:02:14;;;;;;;60.00;40.53;;;9.60;99.90;;;;;;5108963;28;20043;-39
2023/04/16 00:04:40;;;;;;;65.97;41.75;;;9.60;99.90;;;;;;5112951;27;20023;-39
2023/04/16 00:07:07;;;;;;;66.38;41.65;;;9.60;99.90;;;;;;5108442;28;20024;-39
2023/04/16 00:09:32;;;;;;;64.90;42.13;;;9.60;99.90;;;;;;5108588;28;20028;-39
2023/04/16 00:11:58;;;;;;;62.67;41.30;;;9.60;99.90;;;;;;5090004;28;20048;-39
2023/04/16 00:14:24;;;;;;;62.83;40.83;;;9.50;99.90;;;;;;5108711;28;20020;-39
2023/04/16 00:16:49;;;;;;;63.95;41.45;;;9.50;99.90;;;;;;5109032;28;20126;-39
2023/04/16 00:19:15;;;;;;;57.35;39.13;;;9.50;99.90;;;;;;5107342;28;20028;-39
2023/04/16 00:21:40;;;;;;;68.57;42.33;;;9.40;99.90;;;;;;5108032;28;20035;-39
2023/04/16 00:24:06;;;;;;;67.10;42.33;;;9.40;99.90;;;;;;5108053;28;20037;-39
2023/04/16 00:26:31;;;;;;;63.70;40.78;;;9.30;99.90;;;;;;5107790;28;20038;-39
2023/04/16 00:28:57;;;;;;;64.32;41.78;;;9.30;99.90;;;;;;5107736;28;20039;-39
2023/04/16 00:31:30;;;;;;;68.13;42.55;;;9.20;99.90;;;;;;5107401;28;20076;-39
2023/04/16 00:33:56;;;;;;;66.68;40.42;;;9.30;99.90;;;;;;5108217;28;20023;-39
2023/04/16 00:36:26;;;;;;;65.97;40.53;;;9.30;99.90;;;;;;5111509;27;20024;-39
2023/04/16 00:38:52;;;;;;;59.30;40.30;;;9.20;99.90;;;;;;5106872;28;20119;-40
2023/04/16 00:41:18;;;;;;;70.50;43.72;;;9.30;99.90;;;;;;5106561;28;20111;-39
2023/04/16 00:43:43;;;;;;;63.33;41.88;;;9.20;99.90;;;;;;5107556;28;20034;-39
2023/04/16 00:46:09;;;;;;;64.82;41.10;;;9.20;99.90;;;;;;5107271;28;20384;-38
2023/04/16 00:48:36;;;;;;;68.43;40.92;;;9.20;99.90;;;;;;5107245;27;20035;-39
2023/04/16 00:51:04;;;;;;;68.18;40.17;;;9.10;99.90;;;;;;5107288;28;20028;-39
2023/04/16 00:53:30;;;;;;;75.22;42.80;;;9.10;99.90;;;;;;5107381;28;20015;-39
2023/04/16 00:55:56;;;;;;;63.67;40.47;;;9.10;99.90;;;;;;5107248;28;20098;-39
2023/04/16 00:58:22;;;;;;;63.55;41.58;;;9.00;99.90;;;;;;5107194;28;20034;-39
2023/04/16 01:00:48;;;;;;;71.63;43.22;;;9.00;99.90;;;;;;5107521;28;20369;-39
2023/04/16 01:03:14;;;;;;;62.15;40.78;;;9.00;99.90;;;;;;5107241;28;20024;-39
2023/04/16 01:05:40;;;;;;;68.55;42.20;;;9.00;99.90;;;;;;5107481;28;20102;-39
2023/04/16 01:08:05;;;;;;;73.07;42.60;;;9.00;99.90;;;;;;5088900;28;20074;-39
2023/04/16 01:10:31;;;;;;;70.60;41.55;;;9.00;99.90;;;;;;5107884;28;20092;-39
2023/04/16 01:12:56;;;;;;;72.57;42.05;;;9.00;99.90;;;;;;5107794;28;20045;-39
2023/04/16 01:15:22;;;;;;;70.20;42.28;;;8.90;99.90;;;;;;5107746;28;20038;-38
2023/04/16 01:17:47;;;;;;;77.32;44.47;;;8.90;99.90;;;;;;5107800;27;20035;-39
2023/04/16 01:20:13;;;;;;;71.25;41.10;;;8.80;99.90;;;;;;5106976;28;20180;-38
2023/04/16 01:22:39;;;;;;;69.82;40.55;;;8.90;99.90;;;;;;5088727;28;20628;-39
2023/04/16 01:25:05;;;;;;;78.53;44.65;;;8.80;99.90;;;;;;5110375;28;20027;-38
2023/04/16 01:27:31;;;;;;;69.75;41.75;;;8.80;99.90;;;;;;5111273;28;20388;-39
2023/04/16 01:29:57;;;;;;;71.93;41.63;;;8.80;99.90;;;;;;5107831;28;20075;-39
2023/04/16 01:32:22;;;;;;;70.32;41.55;;;8.80;99.90;;;;;;5114030;28;20473;-38
2023/04/16 01:34:48;;;;;;;84.47;43.00;;;8.80;99.90;;;;;;5113889;28;20020;-39
2023/04/16 01:37:13;;;;;;;74.07;44.42;;;8.70;99.90;;;;;;5113632;28;20038;-39
2023/04/16 01:39:39;;;;;;;64.38;38.97;;;8.70;99.90;;;;;;5113561;28;20570;-39
2023/04/16 01:42:04;;;;;;;77.43;42.75;;;8.70;99.90;;;;;;5113784;28;20028;-39
2023/04/16 01:44:30;;;;;;;65.38;39.00;;;8.60;99.90;;;;;;5114187;28;20384;-39
2023/04/16 01:46:56;;;;;;;74.22;42.83;;;8.60;99.90;;;;;;5113924;27;20504;-39
2023/04/16 01:49:21;;;;;;;77.03;43.67;;;8.70;99.90;;;;;;5113214;27;20066;-39
2023/04/16 01:51:47;;;;;;;77.90;43.83;;;8.60;99.90;;;;;;5113663;28;20024;-39
2023/04/16 01:54:12;;;;;;;69.97;41.25;;;8.60;99.90;;;;;;5113610;28;20456;-39
2023/04/16 01:56:38;;;;;;;68.75;40.20;;;8.60;99.90;;;;;;5121834;27;20035;-39
2023/04/16 01:59:04;;;;;;;74.38;41.03;;;8.50;99.90;;;;;;5113579;28;20109;-39
2023/04/16 02:01:29;;;;;;;72.30;41.38;;;8.60;99.90;;;;;;5098207;28;20031;-39
2023/04/16 02:03:56;;;;;;;80.32;43.22;;;8.60;99.90;;;;;;5113418;28;20667;-39
2023/04/16 02:06:22;;;;;;;70.95;39.78;;;8.50;99.90;;;;;;5113579;28;20054;-39
2023/04/16 02:08:47;;;;;;;72.05;39.40;;;8.50;99.90;;;;;;5113372;28;20059;-39
2023/04/16 02:11:13;;;;;;;78.63;41.00;;;8.50;99.90;;;;;;5112900;28;20036;-39
2023/04/16 02:13:38;;;;;;;75.03;42.25;;;8.40;99.90;;;;;;5113532;28;20028;-39
2023/04/16 02:16:04;;;;;;;76.00;42.45;;;8.50;99.90;;;;;;5113574;28;20023;-39
2023/04/16 02:18:30;;;;;;;70.50;42.80;;;8.40;99.90;;;;;;5113612;28;20034;-39
2023/04/16 02:20:58;;;;;;;68.03;40.60;;;8.40;99.90;;;;;;5112409;28;20028;-39
2023/04/16 02:23:24;;;;;;;66.80;41.13;;;8.40;99.90;;;;;;5113089;28;20046;-39
2023/04/16 02:25:50;;;;;;;69.97;40.35;;;8.40;99.90;;;;;;5113359;28;20484;-39
2023/04/16 02:28:16;;;;;;;69.35;37.63;;;8.40;99.90;;;;;;5094525;28;20027;-39
2023/04/16 02:30:42;;;;;;;71.28;40.85;;;8.40;99.90;;;;;;5116928;27;20035;-39
2023/04/16 02:33:09;;;;;;;66.57;40.17;;;8.40;99.90;;;;;;5113262;28;20481;-39
2023/04/16 02:35:36;;;;;;;72.97;43.60;;;8.40;99.90;;;;;;5113772;27;20502;-39
2023/04/16 02:38:03;;;;;;;72.50;42.45;;;8.40;99.90;;;;;;5112999;28;20104;-39
2023/04/16 02:40:29;;;;;;;77.05;42.15;;;8.40;99.90;;;;;;5094683;28;20114;-39
2023/04/16 02:42:55;;;;;;;66.28;39.72;;;8.40;99.90;;;;;;5109967;28;20047;-39
2023/04/16 02:45:22;;;;;;;71.80;42.65;;;8.40;99.90;;;;;;5110399;28;20027;-39
2023/04/16 02:47:48;;;;;;;72.30;43.45;;;8.40;99.90;;;;;;5110104;28;20549;-39
2023/04/16 02:50:14;;;;;;;72.97;43.53;;;8.40;99.90;;;;;;5109629;28;20031;-39
2023/04/16 02:52:39;;;;;;;71.85;41.65;;;8.40;99.90;;;;;;5110124;28;20626;-39
2023/04/16 02:55:05;;;;;;;67.93;42.03;;;8.30;99.90;;;;;;5109944;28;20035;-39
2023/04/16 02:57:31;;;;;;;74.43;43.03;;;8.30;99.90;;;;;;5109469;28;20027;-38
2023/04/16 02:59:57;;;;;;;80.00;42.63;;;8.30;99.90;;;;;;5109894;28;20031;-39
2023/04/16 03:02:22;;;;;;;84.93;44.33;;;8.30;99.90;;;;;;5109850;28;20487;-39
2023/04/16 03:04:48;;;;;;;71.15;40.40;;;8.30;99.90;;;;;;5110788;27;20028;-39
2023/04/16 03:07:13;;;;;;;73.82;42.40;;;8.30;99.90;;;;;;5109304;28;20020;-38
2023/04/16 03:09:39;;;;;;;69.10;40.13;;;8.30;99.90;;;;;;5109330;28;20161;-39
2023/04/16 03:12:05;;;;;;;73.05;41.38;;;8.30;99.90;;;;;;5109267;28;20082;-39
2023/04/16 03:14:30;;;;;;;78.00;41.97;;;8.30;99.90;;;;;;5109404;28;20076;-38
2023/04/16 03:16:57;;;;;;;74.82;43.58;;;8.20;99.90;;;;;;5109495;28;20036;-38
2023/04/16 03:19:22;;;;;;;72.40;42.05;;;8.20;99.90;;;;;;5108920;28;20401;-38
2023/04/16 03:21:48;;;;;;;73.00;41.70;;;8.20;99.90;;;;;;5091057;28;20031;-38
2023/04/16 03:24:13;;;;;;;78.43;42.22;;;8.20;99.90;;;;;;5109286;28;20031;-38
2023/04/16 03:26:39;;;;;;;80.85;44.03;;;8.20;99.90;;;;;;5109002;28;20043;-39
2023/04/16 03:29:05;;;;;;;73.35;40.30;;;8.20;99.90;;;;;;5108824;28;20114;-39
2023/04/16 03:31:30;;;;;;;73.07;42.55;;;8.20;99.90;;;;;;5108937;28;20016;-39
2023/04/16 03:33:56;;;;;;;78.82;43.78;;;8.10;99.90;;;;;;5109439;28;20573;-39
2023/04/16 03:36:25;;;;;;;74.13;41.97;;;8.10;99.90;;;;;;5110320;27;20023;-39
2023/04/16 03:38:51;;;;;;;71.95;41.20;;;8.10;99.90;;;;;;5108695;28;20027;-39
2023/04/16 03:41:17;;;;;;;76.65;41.65;;;8.10;99.90;;;;;;5108454;28;20063;-39
2023/04/16 03:43:42;;;;;;;73.97;42.05;;;8.10;99.90;;;;;;5108732;28;20097;-39
2023/04/16 03:46:08;;;;;;;75.00;40.78;;;8.10;99.90;;;;;;5109195;28;20034;-39
2023/04/16 03:48:33;;;;;;;66.00;39.05;;;8.10;99.90;;;;;;5109050;28;20031;-39
2023/04/16 03:50:59;;;;;;;77.63;42.45;;;8.10;99.90;;;;;;5108773;28;20038;-39
2023/04/16 03:53:24;;;;;;;77.72;42.67;;;8.10;99.90;;;;;;5112302;27;20447;-39
2023/04/16 03:55:51;;;;;;;74.85;42.20;;;8.10;99.90;;;;;;5108215;28;20561;-39
2023/04/16 03:58:17;;;;;;;82.00;43.47;;;8.00;99.90;;;;;;5089628;28;20024;-39
2023/04/16 04:00:42;;;;;;;77.97;43.63;;;8.10;99.90;;;;;;5090485;28;20116;-39
2023/04/16 04:03:12;;;;;;;74.05;41.75;;;8.00;99.90;;;;;;5108660;28;20051;-38
2023/04/16 04:05:39;;;;;;;78.72;42.33;;;8.00;99.90;;;;;;5108555;28;20499;-39
2023/04/16 04:08:05;;;;;;;74.85;42.85;;;8.00;99.90;;;;;;5108256;28;20068;-38
2023/04/16 04:10:32;;;;;;;78.10;42.33;;;8.00;99.90;;;;;;5108055;28;20556;-39
2023/04/16 04:12:57;;;;;;;69.32;40.10;;;8.00;99.90;;;;;;5089587;28;20030;-39
2023/04/16 04:15:23;;;;;;;76.90;43.58;;;8.00;99.90;;;;;;5108426;28;20031;-38
2023/04/16 04:17:48;;;;;;;73.63;41.17;;;8.10;99.90;;;;;;5089773;28;20326;-38
2023/04/16 04:20:14;;;;;;;78.75;41.20;;;8.00;99.90;;;;;;5107958;28;20089;-38
2023/04/16 04:22:39;;;;;;;71.35;41.45;;;8.10;99.90;;;;;;5112291;27;20122;-38
2023/04/16 04:25:05;;;;;;;74.43;41.60;;;8.10;99.90;;;;;;5108456;27;20085;-38
2023/04/16 04:27:31;;;;;;;74.60;41.55;;;8.10;99.90;;;;;;5107548;28;20040;-38
2023/04/16 04:29:56;;;;;;;70.57;41.28;;;8.00;99.90;;;;;;5107768;28;20028;-38
2023/04/16 04:32:22;;;;;;;76.47;42.13;;;8.00;99.90;;;;;;5108102;28;20016;-38
2023/04/16 04:34:47;;;;;;;77.20;42.83;;;8.00;99.90;;;;;;5108091;28;20091;-39
2023/04/16 04:37:13;;;;;;;76.15;43.33;;;8.00;99.90;;;;;;5107805;28;20020;-39
2023/04/16 04:39:39;;;;;;;70.20;41.25;;;8.00;99.90;;;;;;5106959;28;20046;-38
2023/04/16 04:42:04;;;;;;;72.65;41.35;;;8.00;99.90;;;;;;5107508;28;20023;-38
2023/04/16 04:44:30;;;;;;;74.10;41.95;;;8.00;99.90;;;;;;5091974;27;20023;-39
2023/04/16 04:46:55;;;;;;;70.90;41.38;;;8.00;99.90;;;;;;5109421;27;20162;-39
2023/04/16 04:49:21;;;;;;;76.03;40.42;;;8.00;99.90;;;;;;5106786;28;20550;-39
2023/04/16 04:51:47;;;;;;;73.07;42.00;;;8.00;99.90;;;;;;5107343;28;20046;-39
2023/04/16 04:54:12;;;;;;;74.68;41.45;;;8.00;99.90;;;;;;5106753;28;20062;-39
2023/04/16 04:56:38;;;;;;;74.68;41.53;;;8.00;99.90;;;;;;5088374;28;20034;-39
2023/04/16 04:59:04;;;;;;;74.97;40.55;;;8.00;99.90;;;;;;5106933;28;20072;-39
2023/04/16 05:01:30;;;;;;;69.85;41.13;;;8.00;99.90;;;;;;5106836;28;20026;-39
2023/04/16 05:03:55;;;;;;;70.35;40.42;;;8.00;99.90;;;;;;5107041;28;20016;-39
2023/04/16 05:06:21;;;;;;;73.55;41.10;;;8.00;99.90;;;;;;5106828;28;20469;-39
2023/04/16 05:08:46;;;;;;;77.35;41.85;;;8.00;99.90;;;;;;5106717;28;20077;-39
2023/04/16 05:11:12;;;;;;;71.82;40.97;;;8.00;99.90;;;;;;5106334;28;20499;-39
2023/04/16 05:13:37;;;;;;;70.35;39.55;;;8.00;99.90;;;;;;5107266;28;20106;-39
2023/04/16 05:16:03;;;;;;;80.78;42.83;;;8.00;99.90;;;;;;5108236;27;20028;-39
2023/04/16 05:18:28;;;;;;;72.07;41.33;;;8.00;99.90;;;;;;5107417;28;20039;-39
2023/04/16 05:20:54;;;;;;;88.00;44.35;;;8.00;99.90;;;;;;5107379;28;20019;-39
2023/04/16 05:23:20;;;;;;;77.70;43.63;;;8.00;99.90;;;;;;5089447;28;20063;-39
2023/04/16 05:25:45;;;;;;;82.28;44.03;;;8.00;99.90;;;;;;5089417;28;20626;-39
2023/04/16 05:28:11;;;;;;;72.35;40.47;;;8.00;99.90;;;;;;5107609;28;20089;-41
2023/04/16 05:30:36;;;;;;;73.80;41.72;;;8.00;99.90;;;;;;5107899;28;20500;-39
2023/04/16 05:33:02;;;;;;;80.82;42.78;;;8.00;99.90;;;;;;5107940;28;20107;-39
2023/04/16 05:35:28;;;;;;;91.68;44.47;;;8.00;99.90;;;;;;5107891;28;20027;-39
2023/04/16 05:37:53;;;;;;;83.20;45.95;;;8.00;99.90;;;;;;5107031;28;20034;-38
2023/04/16 05:40:19;;;;;;;78.70;42.75;;;8.00;99.90;;;;;;5087665;28;20031;-38
2023/04/16 05:42:44;;;;;;;77.63;42.22;;;8.00;99.90;;;;;;5107724;28;20027;-39
2023/04/16 05:45:10;;;;;;;74.20;41.47;;;8.00;99.90;;;;;;5113402;28;20039;-39
2023/04/16 05:47:36;;;;;;;79.75;43.92;;;8.00;99.90;;;;;;5107348;28;20114;-39
2023/04/16 05:50:01;;;;;;;73.47;40.95;;;8.00;99.90;;;;;;5107083;28;20099;-39
2023/04/16 05:52:27;;;;;;;82.07;44.95;;;8.00;99.90;;;;;;5106956;28;20085;-39
2023/04/16 05:54:52;;;;;;;85.85;43.60;;;8.10;99.90;;;;;;5107375;28;20081;-39
2023/04/16 05:57:18;;;;;;;79.20;42.50;;;8.10;99.90;;;;;;5107178;28;20446;-39
2023/04/16 05:59:43;;;;;;;78.93;43.03;;;8.10;99.90;;;;;;5106863;28;20050;-39
2023/04/16 06:02:09;;;;;;;77.30;41.13;;;8.10;99.90;;;;;;5107189;28;20031;-39
2023/04/16 06:04:34;;;;;;;73.25;39.20;;;8.10;99.90;;;;;;5106577;28;20067;-38
2023/04/16 06:07:00;;;;;;;81.22;44.08;;;8.10;99.90;;;;;;5087769;28;20062;-39
2023/04/16 06:09:26;;;;;;;77.55;43.22;;;8.10;99.90;;;;;;5104858;28;20493;-39
2023/04/16 06:11:51;;;;;;;85.35;43.75;;;8.10;99.90;;;;;;5111063;28;20111;-39
2023/04/16 06:14:17;;;;;;;78.30;43.50;;;8.10;99.90;;;;;;5107946;28;20030;-39
2023/04/16 06:16:42;;;;;;;74.68;40.72;;;8.10;99.90;;;;;;5111398;28;20039;-39
2023/04/16 06:19:08;;;;;;;75.90;42.63;;;8.10;99.90;;;;;;5109818;28;20061;-39
2023/04/16 06:21:34;;;;;;;84.40;45.35;;;8.20;99.90;;;;;;5110843;28;20275;-39
2023/04/16 06:24:00;;;;;;;79.63;43.53;;;8.20;99.90;;;;;;5110637;28;20028;-40
2023/04/16 06:26:25;;;;;;;78.53;42.95;;;8.10;99.90;;;;;;5110403;28;20024;-39
2023/04/16 06:28:51;;;;;;;82.22;42.17;;;8.10;99.90;;;;;;5110382;28;20024;-39
2023/04/16 06:31:16;;;;;;;74.80;40.38;;;8.10;99.90;;;;;;5110609;28;20027;-40
2023/04/16 06:33:42;;;;;;;75.70;40.70;;;8.10;99.90;;;;;;5110783;28;20481;-39
2023/04/16 06:36:07;;;;;;;77.55;43.00;;;8.10;99.90;;;;;;5110537;28;20497;-39
2023/04/16 06:38:33;;;;;;;80.95;41.10;;;8.20;99.90;;;;;;5109737;28;20038;-39
2023/04/16 06:40:58;;;;;;;75.63;41.95;;;8.20;99.90;;;;;;5109750;28;20028;-39
2023/04/16 06:43:24;;;;;;;73.60;39.05;;;8.20;99.90;;;;;;5110139;28;20502;-39
2023/04/16 06:45:50;;;;;;;79.82;44.45;;;8.20;99.90;;;;;;5116389;27;20354;-40
2023/04/16 06:48:15;;;;;;;76.80;42.70;;;8.20;99.90;;;;;;5109894;28;20116;-39
2023/04/16 06:50:41;;;;;;;72.20;39.97;;;8.30;99.90;;;;;;5115001;27;20023;-39
2023/04/16 06:53:07;;;;;;;71.07;41.03;;;8.30;99.90;;;;;;5110697;27;20023;-40
2023/04/16 06:55:32;;;;;;;75.78;41.10;;;8.30;99.90;;;;;;5109772;28;20100;-39
2023/04/16 06:57:57;;;;;;;69.03;39.03;;;8.40;99.90;;;;;;5109542;28;20472;-40
2023/04/16 07:00:23;;;;;;;70.50;39.25;;;8.40;99.90;;;;;;5109525;28;20027;-39
2023/04/16 07:02:49;;;;;;;69.60;40.15;;;8.30;99.90;;;;;;5109180;27;20035;-40
2023/04/16 07:05:14;;;;;;;74.20;40.90;;;8.40;99.90;;;;;;5121388;27;20051;-39
2023/04/16 07:07:40;;;;;;;72.25;38.88;;;8.30;99.90;;;;;;5111741;27;20088;-39
2023/04/16 07:10:07;;;;;;;73.30;40.63;;;8.40;99.90;;;;;;5130263;27;20031;-39
2023/04/16 07:12:32;;;;;;;65.75;37.03;;;8.40;99.90;;;;;;5130700;27;20426;-39
2023/04/16 07:14:58;;;;;;;76.47;38.33;;;8.40;99.90;;;;;;5128619;27;20015;-39
2023/04/16 07:17:23;;;;;;;78.35;40.33;;;8.40;99.90;;;;;;5109618;28;20016;-39
2023/04/16 07:19:50;;;;;;;63.80;37.90;;;8.40;99.90;;;;;;5109667;28;20274;-39
2023/04/16 07:22:15;;;;;;;65.68;36.25;;;8.40;99.90;;;;;;5109763;28;20095;-39
2023/04/16 07:24:41;;;;;;;65.85;36.92;;;8.40;99.90;;;;;;5110815;27;20142;-39
2023/04/16 07:27:06;;;;;;;63.15;35.95;;;8.40;99.90;;;;;;5110871;27;20020;-40
2023/04/16 07:29:32;;;;;;;64.70;36.72;;;8.40;99.90;;;;;;5109261;28;20102;-39
2023/04/16 07:31:57;;;;;;;67.15;35.63;;;8.40;99.90;;;;;;5110114;27;20016;-39
2023/04/16 07:34:23;;;;;;;63.20;35.53;;;8.40;99.90;;;;;;5109592;28;20278;-39
2023/04/16 07:36:48;;;;;;;68.28;36.47;;;8.40;99.90;;;;;;5112716;27;20026;-39
2023/04/16 07:39:14;;;;;;;63.28;33.72;;;8.30;99.90;;;;;;5109398;27;20412;-39
2023/04/16 07:41:40;;;;;;;61.13;35.03;;;8.30;99.90;;;;;;5109584;28;20024;-39
2023/04/16 07:44:05;;;;;;;70.60;37.67;;;8.30;99.90;;;;;;5109358;28;20020;-39
2023/04/16 07:46:31;;;;;;;61.88;34.75;;;8.20;99.90;;;;;;5110816;27;20032;-40
2023/04/16 07:48:56;;;;;;;63.72;35.03;;;8.20;99.90;;;;;;5109050;28;20027;-40
2023/04/16 07:51:22;;;;;;;67.82;36.45;;;8.20;99.90;;;;;;5090421;28;20031;-39
2023/04/16 07:53:48;;;;;;;71.75;37.53;;;8.20;99.90;;;;;;5109007;28;20102;-39
2023/04/16 07:56:13;;;;;;;70.20;37.33;;;8.30;99.90;;;;;;5109313;28;20118;-39
2023/04/16 07:58:39;;;;;;;72.07;38.33;;;8.30;99.90;;;;;;5108941;28;20055;-40
2023/04/16 08:01:04;;;;;;;66.22;38.13;;;8.20;99.90;;;;;;5108910;28;20215;-39
2023/04/16 08:03:30;;;;;;;77.38;38.65;;;8.20;99.90;;;;;;5090575;28;20020;-39
2023/04/16 08:05:56;;;;;;;72.20;39.10;;;8.20;99.90;;;;;;5126221;27;20388;-39
2023/04/16 08:08:21;;;;;;;63.13;36.67;;;8.20;99.90;;;;;;5129198;27;20094;-39
2023/04/16 08:10:47;;;;;;;77.75;38.65;;;8.20;99.90;;;;;;5129327;27;20273;-39
2023/04/16 08:13:12;;;;;;;73.47;39.00;;;8.30;99.90;;;;;;5108996;28;20512;-39
2023/04/16 08:15:38;;;;;;;74.05;38.88;;;8.20;99.90;;;;;;5089819;28;20030;-39
2023/04/16 08:18:05;;;;;;;86.82;40.75;;;8.20;99.90;;;;;;5106915;28;20400;-39
2023/04/16 08:20:31;;;;;;;65.30;36.70;;;8.20;99.90;;;;;;5108064;28;20112;-39
2023/04/16 08:22:57;;;;;;;72.50;37.80;;;8.20;99.90;;;;;;5104579;28;20523;-39
2023/04/16 08:25:23;;;;;;;74.57;40.75;;;8.20;99.90;;;;;;5089635;28;20130;-39
2023/04/16 08:27:49;;;;;;;73.93;39.17;;;8.30;99.90;;;;;;5107806;28;20393;-39
2023/04/16 08:30:15;;;;;;;71.32;38.95;;;8.30;99.90;;;;;;5107387;28;20035;-39
2023/04/16 08:32:41;;;;;;;68.60;37.50;;;8.40;99.90;;;;;;5107850;28;20027;-39
2023/04/16 08:35:08;;;;;;;67.05;36.53;;;8.40;99.90;;;;;;5105484;28;20047;-39
2023/04/16 08:37:33;;;;;;;64.57;37.17;;;8.50;99.90;;;;;;5086010;28;20031;-39
2023/04/16 08:39:59;;;;;;;69.50;36.33;;;8.60;99.90;;;;;;5105134;28;20037;-39
2023/04/16 08:42:33;;;;;;;66.65;36.90;;;8.70;99.90;;;;;;5107075;28;20576;-39
2023/04/16 08:45:12;;;;;;;65.45;36.15;;;8.70;99.90;;;;;;5107407;28;20028;-39
2023/04/16 08:47:38;;;;;;;65.10;35.50;;;8.70;99.90;;;;;;5107657;28;20028;-39
2023/04/16 08:50:05;;;;;;;66.18;37.63;;;8.70;99.90;;;;;;5107350;28;20416;-39
2023/04/16 08:52:31;;;;;;;59.88;34.45;;;8.70;99.90;;;;;;5107786;28;20015;-39
2023/04/16 08:55:07;;;;;;;59.88;34.20;;;8.70;99.90;;;;;;5089276;28;20015;-39
2023/04/16 08:57:48;;;;;;;60.83;34.17;;;8.70;99.90;;;;;;5107143;28;20459;-39
2023/04/16 09:00:14;;;;;;;67.75;36.28;;;8.60;99.90;;;;;;5107483;28;20042;-39
2023/04/16 09:02:41;;;;;;;60.10;34.90;;;8.70;99.90;;;;;;5107423;28;20031;-39
2023/04/16 09:05:07;;;;;;;64.05;34.55;;;8.70;99.90;;;;;;5107478;28;20046;-39
2023/04/16 09:07:33;;;;;;;73.22;37.25;;;8.70;99.90;;;;;;5107459;28;20028;-39
2023/04/16 09:10:00;;;;;;;59.50;34.20;;;8.70;99.90;;;;;;5107131;28;20480;-39
2023/04/16 09:12:26;;;;;;;60.70;35.67;;;8.80;99.90;;;;;;5107412;28;20268;-39
2023/04/16 09:14:52;;;;;;;65.05;36.00;;;8.80;99.90;;;;;;5107457;28;20020;-39
2023/04/16 09:17:18;;;;;;;61.78;33.97;;;8.90;99.90;;;;;;5107316;28;20286;-39
2023/04/16 09:19:44;;;;;;;60.88;33.22;;;8.90;99.90;;;;;;5107189;28;20110;-39
2023/04/16 09:22:10;;;;;;;57.88;34.17;;;9.00;99.90;;;;;;5088405;28;20027;-40
2023/04/16 09:24:37;;;;;;;67.82;35.38;;;9.10;99.90;;;;;;5088652;28;20059;-39
2023/04/16 09:27:03;;;;;;;60.28;32.58;;;9.10;99.90;;;;;;5106892;28;20019;-39
2023/04/16 09:29:36;;;;;;;60.88;33.22;;;9.10;99.90;;;;;;5106744;28;20031;-40
2023/04/16 09:32:07;;;;;;;57.40;32.17;;;9.10;99.90;;;;;;5107346;28;20088;-40
2023/04/16 09:34:33;;;;;;;58.10;33.28;;;9.10;99.90;;;;;;5107511;28;20015;-39
2023/04/16 09:37:17;;;;;;;52.80;31.70;;;9.10;99.90;;;;;;5106963;28;20103;-39
2023/04/16 09:40:02;;;;;;;58.67;33.90;;;9.20;99.90;;;;;;5088297;28;20095;-40
2023/04/16 09:42:38;;;;;;;56.20;32.17;;;9.20;99.90;;;;;;5107489;28;20050;-40
2023/04/16 09:45:04;;;;;;;56.83;31.98;;;9.30;99.90;;;;;;5106879;28;20043;-39
2023/04/16 09:47:43;;;;;;;52.50;31.30;;;9.30;99.90;;;;;;5107346;28;20075;-39
2023/04/16 09:50:13;;;;;;;54.30;31.98;;;9.30;99.90;;;;;;5106127;28;20039;-40
2023/04/16 09:52:38;;;;;;;52.27;31.47;;;9.40;99.90;;;;;;5108327;28;20049;-39
2023/04/16 09:55:04;;;;;;;48.35;29.73;;;9.40;99.90;;;;;;5111191;28;20293;-39
2023/04/16 09:57:30;;;;;;;55.17;33.55;;;9.30;99.90;;;;;;5110813;28;20039;-39
2023/04/16 10:00:05;;;;;;;53.97;30.60;;;9.40;99.90;;;;;;5110166;28;20035;-39
2023/04/16 10:02:30;;;;;;;54.38;33.05;;;9.40;99.90;;;;;;5089903;28;20486;-38
2023/04/16 10:04:56;;;;;;;49.80;30.98;;;9.50;99.90;;;;;;5071932;28;20088;-39
2023/04/16 10:07:26;;;;;;;53.88;31.70;;;9.50;99.90;;;;;;5107351;28;20084;-39
2023/04/16 10:09:52;;;;;;;52.30;30.42;;;9.60;99.90;;;;;;5108935;28;20038;-39
2023/04/16 10:12:19;;;;;;;52.17;30.83;;;9.70;99.90;;;;;;5109797;28;20377;-39
2023/04/16 10:14:44;;;;;;;43.88;27.90;;;9.70;99.90;;;;;;5108642;28;20073;-39
2023/04/16 10:17:10;;;;;;;46.92;30.38;;;9.80;99.90;;;;;;5108736;28;20019;-39
2023/04/16 10:19:36;;;;;;;50.88;29.95;;;9.80;99.90;;;;;;5108067;28;20024;-39
2023/04/16 10:22:02;;;;;;;56.22;31.42;;;9.80;99.90;;;;;;5108711;28;20405;-40
2023/04/16 10:24:29;;;;;;;45.42;27.98;;;9.90;99.90;;;;;;5109638;28;20465;-39
2023/04/16 10:26:55;;;;;;;42.00;26.25;;;9.90;99.90;;;;;;5109837;27;20023;-39
2023/04/16 10:29:22;;;;;;;57.17;30.00;;;9.90;99.90;;;;;;5109467;27;20088;-40
2023/04/16 10:31:49;;;;;;;51.70;29.17;;;9.90;99.90;;;;;;5110044;27;20020;-39
2023/04/16 10:34:15;;;;;;;51.33;29.27;;;9.90;99.90;;;;;;5110390;28;20027;-39
2023/04/16 10:36:41;;;;;;;48.58;28.42;;;9.90;99.90;;;;;;5110948;28;20031;-39
2023/04/16 10:39:11;;;;;;;43.53;28.05;;;10.00;99.90;;;;;;5110412;28;20023;-39
2023/04/16 10:41:37;;;;;;;46.22;28.13;;;10.00;99.90;;;;;;5110713;28;20527;-39
2023/04/16 10:44:08;;;;;;;42.85;25.65;;;10.00;99.90;;;;;;5110914;28;20056;-38
2023/04/16 10:46:42;;;;;;;43.97;28.02;;;10.10;99.90;;;;;;5110562;28;20020;-38
2023/04/16 10:49:24;;;;;;;51.47;29.08;;;10.20;99.90;;;;;;5110080;28;20103;-39
2023/04/16 10:51:58;;;;;;;41.47;27.85;;;10.20;99.90;;;;;;5109808;28;20568;-39
2023/04/16 10:54:26;;;;;;;52.10;28.75;;;10.30;99.90;;;;;;5110084;28;20460;-38
2023/04/16 10:56:53;;;;;;;48.47;28.65;;;10.50;99.90;;;;;;5090841;28;20023;-40
2023/04/16 10:59:20;;;;;;;46.97;28.75;;;10.50;99.90;;;;;;5108889;28;20496;-39
2023/04/16 11:01:57;;;;;;;43.13;28.15;;;10.40;99.90;;;;;;5110062;28;20051;-39
2023/04/16 11:04:23;;;;;;;47.83;28.48;;;10.40;99.90;;;;;;5109249;28;20097;-39
2023/04/16 11:07:13;;;;;;;38.97;26.30;;;10.30;99.90;;;;;;5109570;28;20489;-39
2023/04/16 11:09:53;;;;;;;47.53;26.92;;;10.40;99.90;;;;;;5108692;28;20019;-39
2023/04/16 11:12:32;;;;;;;40.55;25.92;;;10.40;99.90;;;;;;5089772;28;20378;-39
2023/04/16 11:15:03;;;;;;;39.28;25.08;;;10.50;99.90;;;;;;5107244;28;20459;-39
2023/04/16 11:17:46;;;;;;;41.53;24.95;;;10.50;99.90;;;;;;5108094;28;20023;-39
2023/04/16 11:20:15;;;;;;;42.35;25.00;;;10.60;99.90;;;;;;5109101;28;20077;-39
2023/04/16 11:22:41;;;;;;;40.47;26.27;;;10.70;99.90;;;;;;5105859;28;20028;-39
2023/04/16 11:25:07;;;;;;;38.33;25.10;;;10.70;99.90;;;;;;5108526;28;20085;-39
2023/04/16 11:27:33;;;;;;;42.60;26.77;;;10.70;99.90;;;;;;5108865;28;20055;-39
2023/04/16 11:30:00;;;;;;;42.65;24.98;;;10.70;99.90;;;;;;5108729;28;20028;-39
2023/04/16 11:32:25;;;;;;;46.17;26.13;;;10.70;99.90;;;;;;5090763;28;20388;-39
2023/04/16 11:34:51;;;;;;;40.75;23.80;;;10.70;99.90;;;;;;5109156;28;20031;-39
2023/04/16 11:37:33;;;;;;;36.90;23.58;;;10.70;99.90;;;;;;5109318;28;20364;-39
2023/04/16 11:40:00;;;;;;;41.65;24.88;;;10.80;99.90;;;;;;5109054;28;20032;-39
2023/04/16 11:42:27;;;;;;;35.20;22.77;;;10.70;99.90;;;;;;5109188;28;20436;-39
2023/04/16 11:44:59;;;;;;;39.83;24.23;;;10.80;99.90;;;;;;5108999;28;20076;-39
2023/04/16 11:47:26;;;;;;;34.28;23.48;;;10.90;99.90;;;;;;5108794;28;20169;-39
2023/04/16 11:49:52;;;;;;;33.67;23.13;;;11.00;99.90;;;;;;5108917;28;20587;-39
2023/04/16 11:52:31;;;;;;;41.85;25.27;;;11.10;99.90;;;;;;5108952;28;20031;-39
2023/04/16 11:54:57;;;;;;;38.85;23.95;;;11.20;99.90;;;;;;5108945;28;20045;-39
2023/04/16 11:57:27;;;;;;;42.88;24.35;;;11.30;99.90;;;;;;5108614;28;20024;-39
2023/04/16 11:59:53;;;;;;;31.90;22.95;;;11.30;99.90;;;;;;5089982;28;20035;-39
2023/04/16 12:02:34;;;;;;;39.33;24.60;;;11.30;99.90;;;;;;5108676;28;20442;-39
2023/04/16 12:05:01;;;;;;;37.60;24.10;;;11.40;99.90;;;;;;5108487;28;20441;-39
2023/04/16 12:07:26;;;;;;;38.33;24.38;;;11.40;99.90;;;;;;5108468;28;20023;-39
2023/04/16 12:10:05;;;;;;;39.83;25.02;;;11.30;99.90;;;;;;5108515;28;20038;-39
2023/04/16 12:12:31;;;;;;;38.13;23.77;;;11.30;99.90;;;;;;5108262;28;20020;-39
2023/04/16 12:15:02;;;;;;;34.75;23.88;;;11.30;99.90;;;;;;5107553;28;20035;-39
2023/04/16 12:17:28;;;;;;;33.00;21.92;;;11.30;99.90;;;;;;5108309;28;20705;-39
2023/04/16 12:19:58;;;;;;;33.50;21.90;;;11.30;99.90;;;;;;5089665;28;20122;-40
2023/04/16 12:22:36;;;;;;;32.70;23.48;;;11.40;99.90;;;;;;5090011;28;20290;-39
2023/04/16 12:25:06;;;;;;;35.45;22.73;;;11.50;99.90;;;;;;5108490;28;20084;-39
2023/04/16 12:27:51;;;;;;;32.90;20.25;;;11.60;99.90;;;;;;5108571;28;20115;-39
2023/04/16 12:30:22;;;;;;;31.60;22.02;;;11.80;99.90;;;;;;5108209;28;20118;-39
2023/04/16 12:32:50;;;;;;;30.20;20.23;;;11.90;99.90;;;;;;5097697;28;20043;-40
2023/04/16 12:35:32;;;;;;;32.58;20.65;;;12.00;99.90;;;;;;5105104;28;20069;-40